createdAt,value
2019-05-06T00:01:41.711Z,2.86
2019-05-06T00:04:14.027Z,2.93
2019-05-06T00:06:46.345Z,2.98
2019-05-06T00:09:17.745Z,2.95
2019-05-06T00:11:49.639Z,2.90
2019-05-06T00:14:23.445Z,2.79
2019-05-06T00:16:55.738Z,2.87
2019-05-06T00:19:27.226Z,2.93
2019-05-06T00:21:58.403Z,2.92
2019-05-06T00:24:31.378Z,2.88
2019-05-06T00:27:04.856Z,2.85
2019-05-06T00:29:36.422Z,2.87
2019-05-06T00:32:07.727Z,2.86
2019-05-06T00:34:38.930Z,2.83
2019-05-06T00:37:11.521Z,2.81
2019-05-06T00:39:44.389Z,2.78
2019-05-06T00:42:18.294Z,2.75
2019-05-06T00:44:50.170Z,2.75
2019-05-06T00:47:21.802Z,2.76
2019-05-06T00:49:54.707Z,2.72
2019-05-06T00:52:27.380Z,2.78
2019-05-06T00:54:59.648Z,2.73
2019-05-06T00:57:34.035Z,2.79
2019-05-06T01:00:06.936Z,2.75
2019-05-06T01:02:39.417Z,2.77
2019-05-06T01:05:10.994Z,2.85
2019-05-06T01:07:44.020Z,2.81
2019-05-06T01:10:17.261Z,2.82
2019-05-06T01:12:50.273Z,2.80
2019-05-06T01:15:25.849Z,2.87
2019-05-06T01:17:59.369Z,2.82
2019-05-06T01:20:33.790Z,2.85
2019-05-06T01:23:04.701Z,2.88
2019-05-06T01:25:35.939Z,2.92
2019-05-06T01:28:07.748Z,2.90
2019-05-06T01:30:39.666Z,2.89
2019-05-06T01:33:11.556Z,2.83
2019-05-06T01:35:44.358Z,2.81
2019-05-06T01:38:18.960Z,2.83
2019-05-06T01:40:54.554Z,2.85
2019-05-06T01:43:27.860Z,2.81
2019-05-06T01:45:59.461Z,2.81
2019-05-06T01:48:33.659Z,2.71
2019-05-06T01:51:05.982Z,2.64
2019-05-06T01:53:38.176Z,2.54
2019-05-06T01:56:09.515Z,2.50
2019-05-06T01:58:40.804Z,2.55
2019-05-06T02:01:12.129Z,2.55
2019-05-06T02:03:44.156Z,2.59
2019-05-06T02:06:16.451Z,2.59
2019-05-06T02:08:48.439Z,2.61
2019-05-06T02:11:20.513Z,2.56
2019-05-06T02:13:53.815Z,2.44
2019-05-06T02:16:26.420Z,2.42
2019-05-06T02:18:59.470Z,2.40
2019-05-06T02:21:30.548Z,2.44
2019-05-06T02:24:04.267Z,2.43
2019-05-06T02:26:36.274Z,2.41
2019-05-06T02:29:09.459Z,2.40
2019-05-06T02:31:42.096Z,2.34
2019-05-06T02:34:15.414Z,2.29
2019-05-06T02:36:47.454Z,2.29
2019-05-06T02:39:18.749Z,2.25
2019-05-06T02:41:49.814Z,2.26
2019-05-06T02:44:23.792Z,2.31
2019-05-06T02:46:56.454Z,2.27
2019-05-06T02:49:29.410Z,2.29
2019-05-06T02:52:03.093Z,2.28
2019-05-06T02:54:34.662Z,2.26
2019-05-06T02:57:07.512Z,2.24
2019-05-06T02:59:39.882Z,2.12
2019-05-06T03:02:13.954Z,2.02
2019-05-06T03:04:45.717Z,2.01
2019-05-06T03:07:16.880Z,2.02
2019-05-06T03:09:48.490Z,1.86
2019-05-06T03:12:22.870Z,1.92
2019-05-06T03:14:53.648Z,1.88
2019-05-06T03:17:28.809Z,1.87
2019-05-06T03:20:04.326Z,1.92
2019-05-06T03:22:37.494Z,1.96
2019-05-06T03:25:13.314Z,2.05
2019-05-06T03:27:46.992Z,2.05
2019-05-06T03:30:19.041Z,2.04
2019-05-06T03:33:23.435Z,2.04
2019-05-06T03:35:36.304Z,2.08
2019-05-06T03:37:59.293Z,2.16
2019-05-06T03:40:36.176Z,2.17
2019-05-06T03:43:05.495Z,2.16
2019-05-06T03:45:38.443Z,2.18
2019-05-06T03:48:12.980Z,2.16
2019-05-06T03:50:44.738Z,2.10
2019-05-06T03:53:16.909Z,2.18
2019-05-06T03:55:53.747Z,2.21
2019-05-06T03:58:26.849Z,2.28
2019-05-06T04:00:59.841Z,2.31
2019-05-06T04:03:44.058Z,2.38
2019-05-06T04:06:05.837Z,2.44
2019-05-06T04:08:37.497Z,2.49
2019-05-06T04:11:13.423Z,2.55
2019-05-06T04:13:49.515Z,2.39
2019-05-06T04:16:23.247Z,2.38
2019-05-06T04:18:57.691Z,2.48
2019-05-06T04:21:32.977Z,2.58
2019-05-06T04:24:04.660Z,2.68
2019-05-06T04:26:38.031Z,2.77
2019-05-06T04:29:12.916Z,2.86
2019-05-06T04:31:43.969Z,2.94
2019-05-06T04:34:19.474Z,3.05
2019-05-06T04:36:48.599Z,3.18
2019-05-06T04:39:23.322Z,3.29
2019-05-06T04:41:54.680Z,3.40
2019-05-06T04:44:26.780Z,3.57
2019-05-06T04:46:59.078Z,3.67
2019-05-06T04:49:33.109Z,3.76
2019-05-06T04:52:06.453Z,3.91
2019-05-06T04:54:38.547Z,4.00
2019-05-06T04:57:12.887Z,4.08
2019-05-06T04:59:46.077Z,4.17
2019-05-06T05:02:18.819Z,4.18
2019-05-06T05:04:52.869Z,4.24
2019-05-06T05:07:24.737Z,4.36
2019-05-06T05:09:58.354Z,4.46
2019-05-06T05:12:33.551Z,4.55
2019-05-06T05:15:06.574Z,4.65
2019-05-06T05:17:42.001Z,4.77
2019-05-06T05:20:13.106Z,4.90
2019-05-06T05:22:48.106Z,5.06
2019-05-06T05:25:19.198Z,5.15
2019-05-06T05:27:52.732Z,5.28
2019-05-06T05:30:25.978Z,5.40
2019-05-06T05:32:58.209Z,5.58
2019-05-06T05:35:32.121Z,5.72
2019-05-06T05:38:03.871Z,5.87
2019-05-06T05:40:36.586Z,6.04
2019-05-06T05:43:11.742Z,6.18
2019-05-06T05:45:44.561Z,6.38
2019-05-06T05:48:19.303Z,6.62
2019-05-06T05:50:52.511Z,6.82
2019-05-06T05:53:26.087Z,7.07
2019-05-06T05:55:58.787Z,7.30
2019-05-06T05:58:33.127Z,7.51
2019-05-06T06:01:04.925Z,7.68
2019-05-06T06:03:37.538Z,7.97
2019-05-06T06:06:12.466Z,8.13
2019-05-06T06:08:44.040Z,8.27
2019-05-06T06:11:18.523Z,8.40
2019-05-06T06:13:52.173Z,8.53
2019-05-06T06:16:23.822Z,8.64
2019-05-06T06:19:03.228Z,8.79
2019-05-06T06:21:32.376Z,8.82
2019-05-06T06:24:05.040Z,8.88
2019-05-06T06:26:37.566Z,8.90
2019-05-06T06:29:09.295Z,9.02
2019-05-06T06:31:42.846Z,9.15
2019-05-06T06:34:16.264Z,9.27
2019-05-06T06:36:49.517Z,9.34
2019-05-06T06:39:24.439Z,9.49
2019-05-06T06:41:56.318Z,9.51
2019-05-06T06:44:29.263Z,9.56
2019-05-06T06:47:02.189Z,9.65
2019-05-06T06:49:35.114Z,9.79
2019-05-06T06:52:11.296Z,9.87
2019-05-06T06:54:44.540Z,10.00
2019-05-06T06:57:19.362Z,10.07
2019-05-06T06:59:53.205Z,10.18
2019-05-06T07:02:26.661Z,10.26
2019-05-06T07:05:02.348Z,10.27
2019-05-06T07:07:43.411Z,10.29
2019-05-06T07:10:12.119Z,10.31
2019-05-06T07:12:43.723Z,10.43
2019-05-06T07:15:15.221Z,10.55
2019-05-06T07:17:46.446Z,10.54
2019-05-06T07:20:22.856Z,10.63
2019-05-06T07:22:54.901Z,10.74
2019-05-06T07:25:26.655Z,10.84
2019-05-06T07:27:59.314Z,10.95
2019-05-06T07:30:32.325Z,10.82
2019-05-06T07:33:06.467Z,10.75
2019-05-06T07:35:41.103Z,10.92
2019-05-06T07:38:12.316Z,11.01
2019-05-06T07:40:47.150Z,11.11
2019-05-06T07:43:22.040Z,11.30
2019-05-06T07:45:55.504Z,11.29
2019-05-06T07:48:28.271Z,11.35
2019-05-06T07:51:03.032Z,11.27
2019-05-06T07:53:34.883Z,11.45
2019-05-06T07:56:07.887Z,11.72
2019-05-06T07:58:43.095Z,12.00
2019-05-06T08:01:16.067Z,11.99
2019-05-06T08:03:49.231Z,11.99
2019-05-06T08:06:22.734Z,11.96
2019-05-06T08:08:56.061Z,11.98
2019-05-06T08:11:27.988Z,11.96
2019-05-06T08:13:59.533Z,12.08
2019-05-06T08:16:32.377Z,12.23
2019-05-06T08:19:05.236Z,12.22
2019-05-06T08:21:38.661Z,12.19
2019-05-06T08:24:11.955Z,12.40
2019-05-06T08:26:43.368Z,12.56
2019-05-06T08:29:16.030Z,12.70
2019-05-06T08:31:49.189Z,12.54
2019-05-06T08:34:22.605Z,12.48
2019-05-06T08:36:56.725Z,12.55
2019-05-06T08:39:29.639Z,12.68
2019-05-06T08:42:02.857Z,12.72
2019-05-06T08:44:35.796Z,12.78
2019-05-06T08:47:08.060Z,12.77
2019-05-06T08:49:42.274Z,12.73
2019-05-06T08:52:15.708Z,12.95
2019-05-06T08:54:48.481Z,12.80
2019-05-06T08:57:19.894Z,12.83
2019-05-06T08:59:51.034Z,12.47
2019-05-06T09:02:24.743Z,12.06
2019-05-06T09:04:55.759Z,11.84
2019-05-06T09:07:27.147Z,11.81
2019-05-06T09:09:59.548Z,11.91
2019-05-06T09:12:32.939Z,11.93
2019-05-06T09:15:06.265Z,12.01
2019-05-06T09:17:37.911Z,12.50
2019-05-06T09:20:09.948Z,12.82
2019-05-06T09:22:43.110Z,12.79
2019-05-06T09:25:16.045Z,12.66
2019-05-06T09:27:47.268Z,12.42
2019-05-06T09:30:23.058Z,12.31
2019-05-06T09:32:55.033Z,12.18
2019-05-06T09:35:27.559Z,11.97
2019-05-06T09:38:02.186Z,11.98
2019-05-06T09:40:34.715Z,12.06
2019-05-06T09:43:07.566Z,12.03
2019-05-06T09:45:38.909Z,11.96
2019-05-06T09:48:12.853Z,12.16
2019-05-06T09:50:46.792Z,12.22
2019-05-06T09:53:23.094Z,12.20
2019-05-06T09:56:03.136Z,12.13
2019-05-06T09:58:36.132Z,12.15
2019-05-06T10:01:09.370Z,12.16
2019-05-06T10:03:42.599Z,12.20
2019-05-06T10:06:14.701Z,12.25
2019-05-06T10:08:46.627Z,12.21
2019-05-06T10:11:18.836Z,12.22
2019-05-06T10:13:52.419Z,12.13
2019-05-06T10:16:24.725Z,12.19
2019-05-06T10:18:56.912Z,12.36
2019-05-06T10:21:32.197Z,12.42
2019-05-06T10:24:03.940Z,12.47
2019-05-06T10:26:37.123Z,12.78
2019-05-06T10:29:08.754Z,13.27
2019-05-06T10:31:43.181Z,13.45
2019-05-06T10:34:14.902Z,13.08
2019-05-06T10:36:50.119Z,12.79
2019-05-06T10:39:26.010Z,12.61
2019-05-06T10:42:03.281Z,12.70
2019-05-06T10:44:38.273Z,12.89
2019-05-06T10:47:12.153Z,12.89
2019-05-06T10:49:43.818Z,12.85
2019-05-06T10:52:16.940Z,12.92
2019-05-06T10:54:48.107Z,13.19
2019-05-06T10:57:22.206Z,13.30
2019-05-06T10:59:54.040Z,13.79
2019-05-06T11:02:28.778Z,13.49
2019-05-06T11:05:02.783Z,13.21
2019-05-06T11:07:35.593Z,12.87
2019-05-06T11:10:20.564Z,12.59
2019-05-06T11:12:43.104Z,12.38
2019-05-06T11:15:16.518Z,12.22
2019-05-06T11:17:49.167Z,12.12
2019-05-06T11:20:24.178Z,12.04
2019-05-06T11:22:55.708Z,11.71
2019-05-06T11:25:28.569Z,11.71
2019-05-06T11:28:02.928Z,11.55
2019-05-06T11:30:37.017Z,11.42
2019-05-06T11:33:13.132Z,11.40
2019-05-06T11:35:46.346Z,11.49
2019-05-06T11:38:19.239Z,11.50
2019-05-06T11:40:52.920Z,11.60
2019-05-06T11:43:25.022Z,11.69
2019-05-06T11:45:57.799Z,11.73
2019-05-06T11:48:32.620Z,11.88
2019-05-06T11:51:05.591Z,12.06
2019-05-06T11:53:39.872Z,12.12
2019-05-06T11:56:12.726Z,12.34
2019-05-06T11:58:46.643Z,12.61
2019-05-06T12:01:21.320Z,12.44
2019-05-06T12:03:53.012Z,12.50
2019-05-06T12:06:26.000Z,12.57
2019-05-06T12:08:58.725Z,12.65
2019-05-06T12:11:31.542Z,12.86
2019-05-06T12:14:04.992Z,12.85
2019-05-06T12:16:38.027Z,12.84
2019-05-06T12:19:09.595Z,12.97
2019-05-06T12:21:43.144Z,12.61
2019-05-06T12:24:15.198Z,12.52
2019-05-06T12:26:46.861Z,12.47
2019-05-06T12:29:20.005Z,12.48
2019-05-06T12:31:53.369Z,12.58
2019-05-06T12:34:26.227Z,12.65
2019-05-06T12:36:59.145Z,12.67
2019-05-06T12:39:33.016Z,12.68
2019-05-06T12:42:06.339Z,12.67
2019-05-06T12:44:39.510Z,12.77
2019-05-06T12:47:13.988Z,12.76
2019-05-06T12:49:45.301Z,12.75
2019-05-06T12:52:17.208Z,12.68
2019-05-06T12:54:48.736Z,12.80
2019-05-06T12:57:23.374Z,13.04
2019-05-06T12:59:54.922Z,13.22
2019-05-06T13:02:32.801Z,13.33
2019-05-06T13:05:04.909Z,13.33
2019-05-06T13:07:37.779Z,13.35
2019-05-06T13:10:09.076Z,13.58
2019-05-06T13:12:42.365Z,13.89
2019-05-06T13:15:13.889Z,13.69
2019-05-06T13:17:45.343Z,13.45
2019-05-06T13:20:17.166Z,13.21
2019-05-06T13:22:53.131Z,13.18
2019-05-06T13:25:23.526Z,12.95
2019-05-06T13:27:55.315Z,12.92
2019-05-06T13:30:28.405Z,12.82
2019-05-06T13:33:04.078Z,12.66
2019-05-06T13:35:36.210Z,12.72
2019-05-06T13:38:08.745Z,12.92
2019-05-06T13:40:53.854Z,13.17
2019-05-06T13:43:16.436Z,13.22
2019-05-06T13:45:52.578Z,13.11
2019-05-06T13:48:25.757Z,13.17
2019-05-06T13:50:58.969Z,13.24
2019-05-06T13:53:39.276Z,13.44
2019-05-06T13:56:05.226Z,13.62
2019-05-06T13:58:38.268Z,13.57
2019-05-06T14:01:11.084Z,13.34
2019-05-06T14:03:45.608Z,13.13
2019-05-06T14:06:18.274Z,12.92
2019-05-06T14:08:49.767Z,12.84
2019-05-06T14:11:23.100Z,12.76
2019-05-06T14:13:54.934Z,12.54
2019-05-06T14:16:26.788Z,12.42
2019-05-06T14:18:58.228Z,12.44
2019-05-06T14:21:32.405Z,12.53
2019-05-06T14:24:05.312Z,12.90
2019-05-06T14:26:44.467Z,13.28
2019-05-06T14:29:15.789Z,13.63
2019-05-06T14:31:48.639Z,13.82
2019-05-06T14:34:23.119Z,13.61
2019-05-06T14:36:54.583Z,13.54
2019-05-06T14:39:47.439Z,13.44
2019-05-06T14:42:03.903Z,13.41
2019-05-06T14:44:33.761Z,13.49
2019-05-06T14:47:08.320Z,13.77
2019-05-06T14:49:39.785Z,13.84
2019-05-06T14:52:13.172Z,13.54
2019-05-06T14:54:47.936Z,13.19
2019-05-06T14:57:22.777Z,12.96
2019-05-06T14:59:55.902Z,12.67
2019-05-06T15:02:28.350Z,12.58
2019-05-06T15:05:02.747Z,12.54
2019-05-06T15:07:35.031Z,12.65
2019-05-06T15:10:19.198Z,12.84
2019-05-06T15:12:42.454Z,13.07
2019-05-06T15:15:15.044Z,12.94
2019-05-06T15:17:47.840Z,12.92
2019-05-06T15:20:19.463Z,12.98
2019-05-06T15:22:53.038Z,13.17
2019-05-06T15:25:26.334Z,13.42
2019-05-06T15:27:59.344Z,13.52
2019-05-06T15:30:34.176Z,13.72
2019-05-06T15:33:08.269Z,13.65
2019-05-06T15:35:42.720Z,13.40
2019-05-06T15:38:16.496Z,13.19
2019-05-06T15:40:48.302Z,13.24
2019-05-06T15:43:19.408Z,13.30
2019-05-06T15:45:52.651Z,13.11
2019-05-06T15:48:24.180Z,12.82
2019-05-06T15:50:57.113Z,12.67
2019-05-06T15:53:33.328Z,12.44
2019-05-06T15:56:04.834Z,12.34
2019-05-06T15:58:38.037Z,12.34
2019-05-06T16:01:09.723Z,12.56
2019-05-06T16:03:43.223Z,12.81
2019-05-06T16:06:16.063Z,12.97
2019-05-06T16:08:47.091Z,13.20
2019-05-06T16:11:19.628Z,13.42
2019-05-06T16:13:53.419Z,13.11
2019-05-06T16:16:25.357Z,13.07
2019-05-06T16:18:58.120Z,13.34
2019-05-06T16:21:29.889Z,13.38
2019-05-06T16:24:04.528Z,13.46
2019-05-06T16:26:36.753Z,13.28
2019-05-06T16:29:08.166Z,13.36
2019-05-06T16:31:42.265Z,13.26
2019-05-06T16:34:14.780Z,13.19
2019-05-06T16:36:47.780Z,13.16
2019-05-06T16:39:19.594Z,12.99
2019-05-06T16:41:52.537Z,12.95
2019-05-06T16:44:25.521Z,12.95
2019-05-06T16:46:57.508Z,12.85
2019-05-06T16:49:29.559Z,12.82
2019-05-06T16:52:02.519Z,12.85
2019-05-06T16:54:35.115Z,12.82
2019-05-06T16:57:08.482Z,12.84
2019-05-06T16:59:42.316Z,12.89
2019-05-06T17:02:14.627Z,12.88
2019-05-06T17:04:47.648Z,12.79
2019-05-06T17:07:22.205Z,12.70
2019-05-06T17:09:54.359Z,12.63
2019-05-06T17:12:27.903Z,12.48
2019-05-06T17:15:01.018Z,12.39
2019-05-06T17:17:43.179Z,12.38
2019-05-06T17:20:07.693Z,12.40
2019-05-06T17:22:39.675Z,12.22
2019-05-06T17:25:11.726Z,12.23
2019-05-06T17:27:57.410Z,12.16
2019-05-06T17:30:35.811Z,12.13
2019-05-06T17:33:09.737Z,12.15
2019-05-06T17:35:42.858Z,12.07
2019-05-06T17:38:16.311Z,12.01
2019-05-06T17:40:48.135Z,12.01
2019-05-06T17:43:19.847Z,12.04
2019-05-06T17:46:03.748Z,11.96
2019-05-06T17:48:35.433Z,11.95
2019-05-06T17:51:08.808Z,11.83
2019-05-06T17:53:43.473Z,11.86
2019-05-06T17:56:15.966Z,11.70
2019-05-06T17:58:53.144Z,11.63
2019-05-06T18:01:26.374Z,11.54
2019-05-06T18:03:58.167Z,11.38
2019-05-06T18:06:32.442Z,11.37
2019-05-06T18:09:04.391Z,11.31
2019-05-06T18:11:38.489Z,11.10
2019-05-06T18:14:13.227Z,10.93
2019-05-06T18:16:44.873Z,10.73
2019-05-06T18:19:16.236Z,10.54
2019-05-06T18:21:48.405Z,10.42
2019-05-06T18:24:20.314Z,10.31
2019-05-06T18:26:52.877Z,10.19
2019-05-06T18:29:25.347Z,10.08
2019-05-06T18:31:57.148Z,9.94
2019-05-06T18:34:28.507Z,9.74
2019-05-06T18:36:59.217Z,9.57
2019-05-06T18:39:30.073Z,9.49
2019-05-06T18:42:13.407Z,9.50
2019-05-06T18:44:35.444Z,9.49
2019-05-06T18:47:06.610Z,9.41
2019-05-06T18:49:38.532Z,9.37
2019-05-06T18:52:13.568Z,9.24
2019-05-06T18:54:45.612Z,9.17
2019-05-06T18:57:17.488Z,9.08
2019-05-06T18:59:50.505Z,9.01
2019-05-06T19:02:22.906Z,8.94
2019-05-06T19:04:56.530Z,8.84
2019-05-06T19:07:27.587Z,8.72
2019-05-06T19:10:03.188Z,8.63
2019-05-06T19:12:41.344Z,8.59
2019-05-06T19:15:12.711Z,8.49
2019-05-06T19:17:44.514Z,8.51
2019-05-06T19:20:16.688Z,8.51
2019-05-06T19:22:48.171Z,8.43
2019-05-06T19:25:26.570Z,8.45
2019-05-06T19:28:04.176Z,8.51
2019-05-06T19:30:35.470Z,8.45
2019-05-06T19:33:07.324Z,8.39
2019-05-06T19:35:40.080Z,8.35
2019-05-06T19:38:12.567Z,8.38
2019-05-06T19:40:44.326Z,8.37
2019-05-06T19:43:18.177Z,8.32
2019-05-06T19:45:50.143Z,8.27
2019-05-06T19:48:24.698Z,8.21
2019-05-06T19:50:55.171Z,8.10
2019-05-06T19:53:38.023Z,8.07
2019-05-06T19:56:16.181Z,8.12
2019-05-06T19:58:48.925Z,8.10
2019-05-06T20:01:22.738Z,8.11
2019-05-06T20:03:54.662Z,8.11
2019-05-06T20:06:28.585Z,8.08
2019-05-06T20:09:03.315Z,8.13
2019-05-06T20:11:36.592Z,8.18
2019-05-06T20:14:08.381Z,8.25
2019-05-06T20:16:41.955Z,8.29
2019-05-06T20:19:27.122Z,8.34
2019-05-06T20:21:46.958Z,8.39
2019-05-06T20:24:18.502Z,8.40
2019-05-06T20:26:52.702Z,8.44
2019-05-06T20:29:24.549Z,8.47
2019-05-06T20:31:56.149Z,8.45
2019-05-06T20:34:38.148Z,8.48
2019-05-06T20:37:17.795Z,8.51
2019-05-06T20:39:49.839Z,8.57
2019-05-06T20:42:23.510Z,8.64
2019-05-06T20:44:57.105Z,8.67
2019-05-06T20:47:28.993Z,8.71
2019-05-06T20:50:08.064Z,8.79
2019-05-06T20:52:39.705Z,8.85
2019-05-06T20:55:15.191Z,8.87
2019-05-06T20:57:45.081Z,8.92
2019-05-06T21:00:17.121Z,8.95
2019-05-06T21:02:49.202Z,8.97
2019-05-06T21:05:22.781Z,8.97
2019-05-06T21:07:54.158Z,8.92
2019-05-06T21:10:28.115Z,8.81
2019-05-06T21:12:59.477Z,8.81
2019-05-06T21:15:32.359Z,8.83
2019-05-06T21:18:04.517Z,8.81
2019-05-06T21:20:37.937Z,8.79
2019-05-06T21:23:11.088Z,8.78
2019-05-06T21:25:43.169Z,8.80
2019-05-06T21:28:15.489Z,8.78
2019-05-06T21:30:47.618Z,8.76
2019-05-06T21:33:22.126Z,8.71
2019-05-06T21:35:54.690Z,8.62
2019-05-06T21:38:26.421Z,8.57
2019-05-06T21:40:57.552Z,8.51
2019-05-06T21:43:42.237Z,8.43
2019-05-06T21:46:02.506Z,8.45
2019-05-06T21:48:35.616Z,8.44
2019-05-06T21:51:07.342Z,8.35
2019-05-06T21:53:40.596Z,8.27
2019-05-06T21:56:13.086Z,8.22
2019-05-06T21:58:45.895Z,8.13
2019-05-06T22:01:19.668Z,8.05
2019-05-06T22:03:52.355Z,7.98
2019-05-06T22:06:24.581Z,7.93
2019-05-06T22:08:58.066Z,7.83
2019-05-06T22:11:29.604Z,7.77
2019-05-06T22:14:01.836Z,7.71
2019-05-06T22:16:33.808Z,7.69
2019-05-06T22:19:05.886Z,7.71
2019-05-06T22:21:38.608Z,7.67
2019-05-06T22:24:12.104Z,7.71
2019-05-06T22:26:43.946Z,7.62
2019-05-06T22:29:16.405Z,7.60
2019-05-06T22:31:48.179Z,7.57
2019-05-06T22:34:22.103Z,7.57
2019-05-06T22:36:54.303Z,7.64
2019-05-06T22:39:27.170Z,7.67
2019-05-06T22:41:58.455Z,7.69
2019-05-06T22:44:32.336Z,7.62
2019-05-06T22:47:04.081Z,7.62
2019-05-06T22:49:35.247Z,7.61
2019-05-06T22:52:07.714Z,7.58
2019-05-06T22:54:39.922Z,7.51
2019-05-06T22:57:13.159Z,7.54
2019-05-06T22:59:45.060Z,7.57
2019-05-06T23:02:17.975Z,7.58
2019-05-06T23:04:52.989Z,7.54
2019-05-06T23:07:24.439Z,7.47
2019-05-06T23:09:56.359Z,7.39
2019-05-06T23:12:27.821Z,7.29
2019-05-06T23:14:59.240Z,7.24
2019-05-06T23:17:34.267Z,7.20
2019-05-06T23:20:07.401Z,7.20
2019-05-06T23:22:40.207Z,7.13
2019-05-06T23:25:13.577Z,6.99
2019-05-06T23:27:46.303Z,6.88
2019-05-06T23:30:19.241Z,6.80
2019-05-06T23:32:52.928Z,6.67
2019-05-06T23:35:24.917Z,6.56
2019-05-06T23:37:59.333Z,6.42
2019-05-06T23:40:35.859Z,6.35
2019-05-06T23:43:12.644Z,6.30
2019-05-06T23:45:47.506Z,6.30
2019-05-06T23:48:22.856Z,6.25
2019-05-06T23:50:57.719Z,6.19
2019-05-06T23:53:33.121Z,6.04
2019-05-06T23:56:08.568Z,6.00
2019-05-06T23:58:40.329Z,5.96
